createdAt,value
2022-12-19T00:03:49.158Z,-3.63
2022-12-19T00:08:46.927Z,-3.59
2022-12-19T00:13:46.411Z,-3.54
2022-12-19T00:18:45.883Z,-3.47
2022-12-19T00:23:45.814Z,-3.4
2022-12-19T00:28:45.500Z,-3.34
2022-12-19T00:33:43.271Z,-3.29
2022-12-19T00:38:41.901Z,-3.23
2022-12-19T00:43:41.550Z,-3.18
2022-12-19T00:48:41.447Z,-3.11
2022-12-19T00:53:40.714Z,-3.06
2022-12-19T00:58:45.040Z,-3.01
2022-12-19T01:03:46.154Z,-2.97
2022-12-19T01:08:39.751Z,-2.93
2022-12-19T01:13:36.848Z,-2.89
2022-12-19T01:18:36.612Z,-2.83
2022-12-19T01:23:36.043Z,-2.77
2022-12-19T01:28:35.988Z,-2.73
2022-12-19T01:33:34.594Z,-2.72
2022-12-19T01:38:33.705Z,-2.72
2022-12-19T01:43:33.089Z,-2.71
2022-12-19T01:48:33.259Z,-2.66
2022-12-19T01:53:33.262Z,-2.63
2022-12-19T01:58:22.622Z,-2.61
2022-12-19T02:03:22.248Z,-2.59
2022-12-19T02:08:22.410Z,-2.56
2022-12-19T02:13:22.301Z,-2.55
2022-12-19T02:18:21.655Z,-2.54
2022-12-19T02:23:18.496Z,-2.5
2022-12-19T02:28:17.805Z,-2.46
2022-12-19T02:33:17.461Z,-2.4
2022-12-19T02:38:17.463Z,-2.36
2022-12-19T02:43:17.953Z,-2.38
2022-12-19T02:48:19.211Z,-2.34
2022-12-19T02:53:18.203Z,-2.31
2022-12-19T02:58:15.926Z,-2.28
2022-12-19T02:59:36.384Z,-2.27
2022-12-19T03:04:35.839Z,-2.23
2022-12-19T03:09:35.272Z,-2.21
2022-12-19T03:14:35.421Z,-2.17
2022-12-19T03:19:32.787Z,-2.15
2022-12-19T03:24:32.304Z,-2.14
2022-12-19T03:29:31.639Z,-2.11
2022-12-19T03:34:31.362Z,-2.09
2022-12-19T03:39:31.178Z,-2.08
2022-12-19T03:44:28.127Z,-2.08
2022-12-19T03:49:27.622Z,-2.09
2022-12-19T03:54:27.024Z,-2.09
2022-12-19T03:58:47.088Z,-2.08
2022-12-19T04:00:16.154Z,-2.08
2022-12-19T04:05:06.863Z,-2.05
2022-12-19T04:10:06.929Z,-2.07
2022-12-19T04:15:07.678Z,-2.04
2022-12-19T04:20:04.509Z,-2.02
2022-12-19T04:25:04.798Z,-1.99
2022-12-19T04:30:04.443Z,-1.96
2022-12-19T04:35:04.681Z,-1.94
2022-12-19T04:40:01.642Z,-1.92
2022-12-19T04:45:01.068Z,-1.9
2022-12-19T04:50:00.490Z,-1.92
2022-12-19T04:55:00.379Z,-1.89
2022-12-19T04:59:20.590Z,-1.87
2022-12-19T05:04:19.664Z,-1.84
2022-12-19T05:09:18.903Z,-1.81
2022-12-19T05:14:18.737Z,-1.78
2022-12-19T05:19:19.190Z,-1.74
2022-12-19T05:24:16.548Z,-1.69
2022-12-19T05:29:16.335Z,-1.62
2022-12-19T05:34:16.159Z,-1.52
2022-12-19T05:39:16.383Z,-1.47
2022-12-19T05:44:24.805Z,-1.42
2022-12-19T05:49:24.233Z,-1.38
2022-12-19T05:54:24.757Z,-1.37
2022-12-19T05:59:06.600Z,-1.36
2022-12-19T06:04:04.970Z,-1.36
2022-12-19T06:09:04.186Z,-1.34
2022-12-19T06:14:04.266Z,-1.32
2022-12-19T06:19:03.938Z,-1.3
2022-12-19T06:24:01.004Z,-1.26
2022-12-19T06:29:00.306Z,-1.23
2022-12-19T06:34:00.127Z,-1.17
2022-12-19T06:38:59.707Z,-1.13
2022-12-19T06:43:58.881Z,-1.07
2022-12-19T06:48:57.772Z,-1.05
2022-12-19T06:53:57.441Z,-1.04
2022-12-19T06:58:45.062Z,-0.99
2022-12-19T07:00:05.819Z,-0.95
2022-12-19T07:05:04.719Z,-0.89
2022-12-19T07:10:04.757Z,-0.83
2022-12-19T07:15:04.010Z,-0.79
2022-12-19T07:20:04.239Z,-0.8
2022-12-19T07:25:01.841Z,-0.8
2022-12-19T07:30:01.196Z,-0.83
2022-12-19T07:35:00.578Z,-0.85
2022-12-19T07:40:00.613Z,-0.8
2022-12-19T07:44:59.409Z,-0.74
2022-12-19T07:49:58.739Z,-0.65
2022-12-19T07:54:58.401Z,-0.47
2022-12-19T07:59:18.683Z,-0.34
2022-12-19T08:04:16.662Z,-0.21
2022-12-19T08:09:15.853Z,-0.17
2022-12-19T08:14:25.924Z,-0.1
2022-12-19T08:19:27.551Z,-0.05
2022-12-19T08:24:23.598Z,0.03
2022-12-19T08:29:23.118Z,0.07
2022-12-19T08:34:22.682Z,0.12
2022-12-19T08:39:21.030Z,0.18
2022-12-19T08:44:20.961Z,0.26
2022-12-19T08:49:21.190Z,0.35
2022-12-19T08:54:21.754Z,0.46
2022-12-19T08:59:05.602Z,0.55
2022-12-19T09:04:55.949Z,0.65
2022-12-19T09:09:04.540Z,0.76
2022-12-19T09:14:05.188Z,0.9
2022-12-19T09:19:02.709Z,1.02
2022-12-19T09:24:07.615Z,1.08
2022-12-19T09:29:02.757Z,1.2
2022-12-19T09:34:03.053Z,1.29
2022-12-19T09:39:00.655Z,1.37
2022-12-19T09:44:01.283Z,1.51
2022-12-19T09:48:59.396Z,1.55
2022-12-19T09:53:59.229Z,1.56
2022-12-19T09:58:47.307Z,1.65
2022-12-19T10:00:07.556Z,1.67
2022-12-19T10:05:19.707Z,1.82
2022-12-19T10:10:53.748Z,1.97
2022-12-19T10:15:06.627Z,2.18
2022-12-19T10:20:03.667Z,2.28
2022-12-19T10:25:08.884Z,2.33
2022-12-19T10:30:02.996Z,2.4
2022-12-19T10:35:03.017Z,2.46
2022-12-19T10:39:59.873Z,2.55
2022-12-19T10:44:59.261Z,2.65
2022-12-19T10:50:02.644Z,2.76
2022-12-19T10:55:00.028Z,2.85
2022-12-19T10:59:45.363Z,2.95
2022-12-19T11:04:45.417Z,2.98
2022-12-19T11:09:46.048Z,3.04
2022-12-19T11:31:50.164Z,3.05
2022-12-19T11:32:51.511Z,3.1
2022-12-19T11:34:40.850Z,3.16
2022-12-19T11:39:39.712Z,3.15
2022-12-19T11:44:39.253Z,3.16
2022-12-19T11:49:39.020Z,3.19
2022-12-19T11:54:39.266Z,3.39
2022-12-19T11:59:00.607Z,3.7
2022-12-19T12:04:02.090Z,3.88
2022-12-19T12:10:14.528Z,3.88
2022-12-19T12:38:31.965Z,3.78
2022-12-19T12:38:45.509Z,3.67
2022-12-19T12:43:56.406Z,3.73
2022-12-19T12:48:55.834Z,3.69
2022-12-19T12:53:55.817Z,3.65
2022-12-19T12:58:42.815Z,3.69
2022-12-19T13:03:40.181Z,3.72
2022-12-19T13:08:39.518Z,3.69
2022-12-19T13:13:39.095Z,3.68
2022-12-19T13:18:38.923Z,3.64
2022-12-19T13:23:38.097Z,3.6
2022-12-19T13:28:36.979Z,3.57
2022-12-19T13:33:36.641Z,3.56
2022-12-19T13:39:52.818Z,3.55
2022-12-19T13:43:35.773Z,3.53
2022-12-19T13:48:33.830Z,3.51
2022-12-19T13:53:32.850Z,3.51
2022-12-19T13:58:20.410Z,3.48
2022-12-19T14:03:20.309Z,3.42
2022-12-19T14:08:20.384Z,3.34
2022-12-19T14:13:40.187Z,3.29
2022-12-19T14:18:41.997Z,3.19
2022-12-19T14:23:16.351Z,3.12
2022-12-19T14:28:28.766Z,3.06
2022-12-19T14:33:47.661Z,2.98
2022-12-19T14:39:18.580Z,2.92
2022-12-19T14:43:58.467Z,2.87
2022-12-19T14:57:03.910Z,2.74
2022-12-19T14:57:09.804Z,2.58
2022-12-19T14:58:51.861Z,2.36
2022-12-19T14:59:46.491Z,2.32
2022-12-19T15:04:47.585Z,2.18
2022-12-19T15:10:57.809Z,2.07
2022-12-19T15:15:02.139Z,1.93
2022-12-19T15:19:42.992Z,1.76
2022-12-19T15:24:43.118Z,1.62
2022-12-19T15:29:39.937Z,1.51
2022-12-19T15:34:46.573Z,1.37
2022-12-19T15:39:38.848Z,1.24
2022-12-19T15:44:38.881Z,1.11
2022-12-19T15:49:37.392Z,0.93
2022-12-19T15:54:49.940Z,0.77
2022-12-19T15:59:24.290Z,0.62
2022-12-19T16:04:25.347Z,0.44
2022-12-19T16:09:22.701Z,0.29
2022-12-19T16:14:22.610Z,0.21
2022-12-19T16:19:22.105Z,0.16
2022-12-19T16:24:21.693Z,0.1
2022-12-19T16:29:22.013Z,0.09
2022-12-19T16:34:22.704Z,0.08
2022-12-19T16:39:19.978Z,0.05
2022-12-19T16:44:20.192Z,-0.01
2022-12-19T16:49:08.963Z,-0.07
2022-12-19T16:54:09.071Z,-0.08
2022-12-19T16:58:52.932Z,-0.1
2022-12-19T17:03:52.544Z,-0.13
2022-12-19T17:08:52.396Z,-0.15
2022-12-19T17:13:52.331Z,-0.13
2022-12-19T17:18:50.743Z,-0.15
2022-12-19T17:23:50.763Z,-0.2
2022-12-19T17:28:50.118Z,-0.25
2022-12-19T17:33:50.261Z,-0.16
2022-12-19T17:38:48.959Z,0.19
2022-12-19T17:43:48.019Z,0.23
2022-12-19T17:48:47.549Z,0.3
2022-12-19T17:53:47.684Z,0.25
2022-12-19T17:58:47.325Z,0.1
2022-12-19T18:03:46.754Z,0
2022-12-19T18:08:46.029Z,-0.08
2022-12-19T18:13:46.067Z,-0.15
2022-12-19T18:18:44.715Z,-0.2
2022-12-19T18:23:43.938Z,-0.23
2022-12-19T18:28:43.102Z,-0.25
2022-12-19T18:33:43.089Z,-0.29
2022-12-19T18:38:42.142Z,-0.3
2022-12-19T18:43:39.766Z,-0.3
2022-12-19T18:48:39.097Z,-0.3
2022-12-19T18:53:39.483Z,-0.32
2022-12-19T18:58:38.439Z,-0.31
2022-12-19T18:59:59.737Z,-0.31
2022-12-19T19:04:59.176Z,-0.32
2022-12-19T19:09:58.585Z,-0.32
2022-12-19T19:14:58.922Z,-0.22
2022-12-19T19:19:58.791Z,-0.19
2022-12-19T19:24:55.824Z,-0.19
2022-12-19T19:29:55.379Z,-0.2
2022-12-19T19:34:55.092Z,-0.2
2022-12-19T19:39:54.070Z,-0.2
2022-12-19T19:44:52.929Z,-0.15
2022-12-19T19:49:52.289Z,-0.14
2022-12-19T19:54:52.345Z,-0.15
2022-12-19T19:58:54.573Z,-0.15
2022-12-19T20:03:51.981Z,-0.13
2022-12-19T20:08:51.035Z,-0.12
2022-12-19T20:13:50.901Z,-0.12
2022-12-19T20:18:51.642Z,-0.14
2022-12-19T20:23:48.278Z,-0.12
2022-12-19T20:28:49.225Z,-0.12
2022-12-19T20:33:47.487Z,-0.13
2022-12-19T20:38:47.558Z,-0.15
2022-12-19T20:43:46.324Z,0.02
2022-12-19T20:48:45.424Z,0.26
2022-12-19T20:53:44.987Z,0.32
2022-12-19T20:58:45.022Z,0.32
2022-12-19T21:03:44.275Z,0.43
2022-12-19T21:08:42.583Z,0.4
2022-12-19T21:13:41.194Z,0.36
2022-12-19T21:18:41.088Z,0.3
2022-12-19T21:23:40.706Z,0.3
2022-12-19T21:28:40.961Z,0.35
2022-12-19T21:33:38.949Z,0.38
2022-12-19T21:38:38.597Z,0.43
2022-12-19T21:43:38.332Z,0.41
2022-12-19T21:48:38.536Z,0.4
2022-12-19T21:53:35.975Z,0.42
2022-12-19T21:58:35.922Z,0.46
2022-12-19T21:59:57.038Z,0.5
2022-12-19T22:04:57.217Z,0.57
2022-12-19T22:09:54.106Z,0.62
2022-12-19T22:14:53.502Z,0.65
2022-12-19T22:19:53.175Z,0.7
2022-12-19T22:24:52.307Z,0.69
2022-12-19T22:29:51.040Z,0.68
2022-12-19T22:34:50.167Z,0.69
2022-12-19T22:39:49.587Z,0.72
2022-12-19T22:44:49.533Z,0.79
2022-12-19T22:49:49.300Z,0.86
2022-12-19T22:54:46.906Z,0.87
2022-12-19T22:58:51.445Z,0.9
2022-12-19T23:03:51.145Z,1.04
2022-12-19T23:08:51.707Z,1.15
2022-12-19T23:13:50.249Z,1.14
2022-12-19T23:18:50.422Z,1.19
2022-12-19T23:23:50.072Z,1.23
2022-12-19T23:28:49.113Z,1.22
2022-12-19T23:33:48.229Z,1.19
2022-12-19T23:38:47.957Z,1.22
2022-12-19T23:43:47.563Z,1.28
2022-12-19T23:48:47.011Z,1.45
2022-12-19T23:53:45.101Z,1.57
2022-12-19T23:58:43.926Z,1.56
